Aviation Digital Data Service (ADDS)

Output produced by METARs form (0856 UTC 19 April 2019)
found at http://www.aviationweather.gov/metar/data/
 
Forecast for: KRVS (TULSA , OK, US)
Text: KRVS 190520Z 1906/2006 33008KT P6SM BKN100
Forecast period: 0600 to 1600 UTC 19 April 2019
Forecast type: FROM: standard forecast or significant change
Winds: from the NNW (330 degrees) at 9 MPH (8 knots; 4.1 m/s)
Visibility: 6 or more miles 10+ km)
Ceiling: 10000 feet AGL
Clouds: broken clouds at 10000 feet AGL
Weather: no significant weather forecast for this period
Text: FM191600 34010G18KT P6SM SCT250
Forecast period: 1600 UTC 19 April 2019 to 0000 UTC 20 April 2019
Forecast type: FROM: standard forecast or significant change
Winds: from the NNW (340 degrees) at 12 MPH (10 knots; 5.1 m/s)
gusting to 21 MPH (18 knots; 9.3 m/s)
Visibility: 6 or more miles 10+ km)
Ceiling: at least 12,000 feet AGL
Clouds: scattered clouds at 25000 feet AGL
Weather: no significant weather forecast for this period
Text: FM200000 34006KT P6SM SKC
Forecast period: 0000 to 0600 UTC 20 April 2019
Forecast type: FROM: standard forecast or significant change
Winds: from the NNW (340 degrees) at 7 MPH (6 knots; 3.1 m/s)
Visibility: 6 or more miles 10+ km)
Clouds: clear skies
Weather: no significant weather forecast for this period